createdAt,value
2018-06-28T00:01:27.336Z,63.70
2018-06-28T00:03:55.906Z,62.50
2018-06-28T00:06:24.453Z,61.70
2018-06-28T00:08:52.959Z,61.80
2018-06-28T00:11:21.371Z,61.90
2018-06-28T00:13:49.882Z,61.90
2018-06-28T00:16:18.156Z,61.60
2018-06-28T00:18:46.653Z,61.60
2018-06-28T00:21:15.192Z,60.70
2018-06-28T00:23:43.830Z,60.70
2018-06-28T00:26:12.296Z,60.90
2018-06-28T00:28:40.829Z,61.80
2018-06-28T00:31:09.274Z,62.30
2018-06-28T00:33:37.628Z,62.70
2018-06-28T00:36:06.848Z,62.60
2018-06-28T00:38:35.372Z,62.60
2018-06-28T00:41:03.823Z,62.60
2018-06-28T00:43:32.356Z,61.30
2018-06-28T00:46:00.809Z,60.40
2018-06-28T00:48:29.184Z,60.70
2018-06-28T00:50:57.832Z,59.10
2018-06-28T00:53:26.253Z,57.10
2018-06-28T00:55:54.666Z,57.70
2018-06-28T00:58:23.090Z,57.50
2018-06-28T01:00:51.590Z,57.40
2018-06-28T01:03:20.075Z,58.40
2018-06-28T01:05:48.525Z,57.40
2018-06-28T01:08:16.936Z,56.20
2018-06-28T01:10:45.514Z,55.00
2018-06-28T01:13:13.833Z,56.90
2018-06-28T01:18:10.402Z,58.40
2018-06-28T01:23:07.025Z,58.20
2018-06-28T01:25:35.960Z,58.10
2018-06-28T01:28:04.488Z,57.70
2018-06-28T01:30:33.082Z,57.90
2018-06-28T01:33:01.561Z,57.40
2018-06-28T01:35:29.976Z,57.40
2018-06-28T01:37:58.270Z,57.70
2018-06-28T01:40:26.710Z,57.50
2018-06-28T01:43:05.953Z,57.10
2018-06-28T01:45:34.445Z,56.60
2018-06-28T01:48:02.960Z,56.30
2018-06-28T01:50:31.379Z,56.10
2018-06-28T01:52:59.864Z,55.80
2018-06-28T01:55:28.313Z,56.00
2018-06-28T01:57:56.788Z,56.00
2018-06-28T02:00:25.486Z,55.60
2018-06-28T02:02:54.047Z,55.50
2018-06-28T02:05:22.509Z,56.10
2018-06-28T02:07:51.037Z,56.80
2018-06-28T02:10:19.672Z,56.80
2018-06-28T02:12:48.138Z,57.10
2018-06-28T02:15:16.660Z,56.50
2018-06-28T02:17:45.156Z,55.90
2018-06-28T02:22:41.874Z,54.90
2018-06-28T02:25:10.372Z,55.40
2018-06-28T02:27:38.681Z,54.80
2018-06-28T02:30:07.109Z,55.10
2018-06-28T02:32:35.507Z,55.10
2018-06-28T02:35:04.312Z,55.40
2018-06-28T02:37:32.974Z,56.00
2018-06-28T02:40:01.463Z,55.90
2018-06-28T02:42:29.957Z,55.20
2018-06-28T02:44:58.392Z,55.40
2018-06-28T02:47:26.848Z,56.30
2018-06-28T02:49:55.384Z,56.70
2018-06-28T02:52:23.894Z,56.70
2018-06-28T02:54:52.373Z,56.50
2018-06-28T02:57:20.860Z,57.10
2018-06-28T02:59:49.288Z,56.40
2018-06-28T03:02:17.718Z,56.10
2018-06-28T03:04:46.116Z,56.20
2018-06-28T03:07:14.512Z,56.00
2018-06-28T03:09:43.028Z,56.40
2018-06-28T03:12:11.438Z,56.70
2018-06-28T03:14:39.816Z,57.00
2018-06-28T03:17:08.561Z,57.00
2018-06-28T03:19:36.870Z,57.20
2018-06-28T03:22:05.441Z,57.10
2018-06-28T03:24:33.952Z,57.30
2018-06-28T03:27:02.492Z,57.10
2018-06-28T03:31:59.224Z,56.50
2018-06-28T03:34:27.712Z,56.40
2018-06-28T03:36:56.456Z,56.20
2018-06-28T03:39:25.199Z,56.00
2018-06-28T03:41:53.666Z,56.30
2018-06-28T03:44:22.152Z,56.20
2018-06-28T03:46:50.469Z,56.10
2018-06-28T03:49:18.992Z,56.20
2018-06-28T03:51:47.392Z,55.90
2018-06-28T03:54:15.852Z,57.20
2018-06-28T03:56:44.469Z,57.40
2018-06-28T03:59:12.935Z,57.50
2018-06-28T04:01:41.417Z,57.60
2018-06-28T04:04:09.705Z,57.50
2018-06-28T04:06:38.247Z,57.20
2018-06-28T04:09:09.258Z,57.30
2018-06-28T04:11:37.665Z,57.30
2018-06-28T04:14:06.047Z,57.50
2018-06-28T04:16:35.599Z,58.20
2018-06-28T04:19:04.177Z,58.00
2018-06-28T04:21:32.700Z,58.10
2018-06-28T04:24:01.136Z,58.10
2018-06-28T04:26:29.630Z,58.70
2018-06-28T04:28:58.024Z,58.00
2018-06-28T04:31:26.484Z,58.00
2018-06-28T04:33:55.041Z,57.50
2018-06-28T04:36:23.520Z,58.20
2018-06-28T04:38:51.999Z,58.40
2018-06-28T04:41:20.439Z,58.60
2018-06-28T04:43:48.946Z,58.50
2018-06-28T04:46:17.247Z,58.40
2018-06-28T04:48:45.715Z,58.80
2018-06-28T04:51:14.198Z,58.90
2018-06-28T04:53:42.639Z,59.20
2018-06-28T04:56:11.125Z,59.60
2018-06-28T04:58:39.620Z,59.90
2018-06-28T05:01:08.878Z,60.40
2018-06-28T05:03:37.255Z,60.60
2018-06-28T05:06:06.130Z,60.60
2018-06-28T05:08:34.568Z,60.60
2018-06-28T05:11:02.995Z,60.40
2018-06-28T05:13:31.363Z,60.20
2018-06-28T05:15:59.820Z,59.60
2018-06-28T05:18:28.229Z,59.70
2018-06-28T05:23:24.967Z,61.10
2018-06-28T05:25:53.478Z,61.60
2018-06-28T05:28:21.957Z,62.30
2018-06-28T05:30:50.498Z,63.20
2018-06-28T05:33:18.931Z,63.10
2018-06-28T05:35:47.431Z,62.70
2018-06-28T05:38:15.909Z,63.00
2018-06-28T05:40:44.345Z,62.30
2018-06-28T05:43:12.799Z,62.10
2018-06-28T05:45:41.138Z,63.30
2018-06-28T05:50:37.733Z,61.40
2018-06-28T05:53:06.421Z,61.50
2018-06-28T05:55:37.804Z,60.70
2018-06-28T05:58:06.553Z,60.80
2018-06-28T06:00:35.045Z,60.50
2018-06-28T06:05:31.738Z,60.70
2018-06-28T06:08:00.177Z,61.40
2018-06-28T06:10:29.256Z,61.60
2018-06-28T06:12:57.661Z,63.00
2018-06-28T06:15:26.401Z,63.30
2018-06-28T06:17:54.857Z,62.90
2018-06-28T06:20:23.477Z,61.70
2018-06-28T06:22:51.973Z,62.00
2018-06-28T06:25:20.373Z,62.30
2018-06-28T06:27:48.835Z,62.10
2018-06-28T06:32:45.453Z,62.50
2018-06-28T06:35:13.854Z,63.90
2018-06-28T06:37:42.315Z,63.80
2018-06-28T06:40:10.836Z,63.20
2018-06-28T06:42:39.366Z,63.10
2018-06-28T06:45:08.155Z,63.40
2018-06-28T06:47:36.636Z,63.30
2018-06-28T06:50:05.397Z,63.40
2018-06-28T06:52:34.072Z,64.70
2018-06-28T06:55:02.521Z,64.80
2018-06-28T06:57:31.034Z,63.70
2018-06-28T06:59:59.442Z,62.30
2018-06-28T07:04:55.992Z,63.30
2018-06-28T07:09:52.594Z,62.30
2018-06-28T07:12:21.001Z,61.00
2018-06-28T07:15:12.121Z,59.60
2018-06-28T07:17:40.576Z,60.00
2018-06-28T07:20:08.942Z,62.40
2018-06-28T07:22:37.465Z,62.60
2018-06-28T07:25:05.976Z,62.10
2018-06-28T07:27:34.473Z,60.50
2018-06-28T07:30:02.936Z,61.40
2018-06-28T07:32:31.405Z,61.90
2018-06-28T07:34:59.863Z,59.70
2018-06-28T07:37:28.347Z,60.40
2018-06-28T07:39:56.888Z,60.10
2018-06-28T07:42:25.466Z,58.60
2018-06-28T07:47:21.798Z,57.40
2018-06-28T07:49:50.280Z,54.60
2018-06-28T07:52:18.790Z,55.50
2018-06-28T07:54:47.226Z,54.80
2018-06-28T07:57:15.815Z,55.90
2018-06-28T07:59:44.222Z,54.20
2018-06-28T08:02:12.614Z,54.20
2018-06-28T08:04:41.063Z,54.70
2018-06-28T08:07:09.679Z,55.50
2018-06-28T08:12:06.208Z,56.90
2018-06-28T08:15:22.529Z,56.90
2018-06-28T08:17:50.983Z,55.40
2018-06-28T08:20:19.468Z,56.10
2018-06-28T08:22:47.913Z,55.70
2018-06-28T08:25:16.371Z,53.90
2018-06-28T08:27:44.936Z,54.60
2018-06-28T08:30:13.353Z,52.00
2018-06-28T08:32:41.924Z,52.60
2018-06-28T08:37:38.635Z,51.90
2018-06-28T08:40:07.252Z,52.40
2018-06-28T08:45:04.234Z,54.20
2018-06-28T08:47:32.672Z,51.90
2018-06-28T08:50:01.188Z,51.00
2018-06-28T08:52:29.573Z,51.20
2018-06-28T08:54:58.145Z,51.40
2018-06-28T08:57:26.502Z,50.80
2018-06-28T08:59:54.954Z,52.00
2018-06-28T09:02:23.424Z,53.30
2018-06-28T09:04:51.961Z,52.40
2018-06-28T09:07:20.490Z,52.40
2018-06-28T09:09:48.874Z,54.00
2018-06-28T09:15:11.587Z,54.40
2018-06-28T09:17:40.009Z,53.60
2018-06-28T09:22:36.698Z,52.20
2018-06-28T09:25:05.622Z,52.90
2018-06-28T09:27:34.070Z,53.60
2018-06-28T09:30:02.602Z,51.70
2018-06-28T09:32:31.121Z,51.30
2018-06-28T09:34:59.496Z,53.50
2018-06-28T09:37:28.065Z,55.70
2018-06-28T09:39:56.604Z,56.00
2018-06-28T09:42:24.988Z,56.70
2018-06-28T09:44:53.412Z,55.50
2018-06-28T09:47:21.931Z,55.30
2018-06-28T09:49:50.504Z,55.80
2018-06-28T09:52:18.894Z,55.40
2018-06-28T09:54:47.427Z,54.90
2018-06-28T09:57:15.864Z,56.30
2018-06-28T09:59:44.301Z,57.10
2018-06-28T10:02:12.774Z,54.90
2018-06-28T10:04:41.312Z,53.90
2018-06-28T10:07:09.657Z,54.40
2018-06-28T10:09:38.180Z,54.40
2018-06-28T10:15:02.978Z,54.30
2018-06-28T10:17:31.383Z,55.30
2018-06-28T10:19:59.889Z,52.50
2018-06-28T10:22:28.392Z,52.60
2018-06-28T10:24:56.789Z,53.90
2018-06-28T10:27:25.160Z,52.30
2018-06-28T10:29:53.537Z,50.60
2018-06-28T10:32:21.977Z,50.60
2018-06-28T10:34:50.433Z,50.80
2018-06-28T10:37:18.980Z,51.30
2018-06-28T10:39:47.408Z,49.30
2018-06-28T10:44:44.089Z,46.00
2018-06-28T10:47:12.676Z,48.60
2018-06-28T10:49:41.165Z,49.00
2018-06-28T10:52:09.514Z,48.60
2018-06-28T10:54:38.002Z,48.90
2018-06-28T10:57:06.571Z,49.50
2018-06-28T10:59:35.073Z,46.20
2018-06-28T11:02:03.632Z,47.60
2018-06-28T11:04:32.279Z,48.00
2018-06-28T11:07:00.835Z,49.80
2018-06-28T11:11:57.449Z,49.20
2018-06-28T11:14:49.046Z,47.50
2018-06-28T11:17:17.558Z,47.50
2018-06-28T11:19:46.048Z,47.10
2018-06-28T11:22:14.572Z,49.70
2018-06-28T11:24:43.039Z,49.00
2018-06-28T11:27:11.800Z,49.00
2018-06-28T11:29:40.305Z,46.50
2018-06-28T11:32:08.748Z,49.00
2018-06-28T11:34:37.144Z,50.30
2018-06-28T11:37:05.653Z,45.80
2018-06-28T11:39:33.983Z,46.80
2018-06-28T11:42:02.474Z,47.30
2018-06-28T11:44:30.888Z,47.30
2018-06-28T11:46:59.371Z,50.70
2018-06-28T11:49:27.860Z,49.90
2018-06-28T11:51:56.249Z,47.70
2018-06-28T11:54:24.837Z,46.30
2018-06-28T11:56:53.230Z,45.20
2018-06-28T11:59:21.744Z,46.10
2018-06-28T12:01:50.184Z,46.60
2018-06-28T12:04:18.719Z,47.70
2018-06-28T12:06:47.071Z,46.50
2018-06-28T12:09:15.636Z,47.50
2018-06-28T12:11:44.117Z,45.70
2018-06-28T12:14:14.399Z,46.10
2018-06-28T12:16:42.886Z,46.70
2018-06-28T12:19:11.393Z,48.30
2018-06-28T12:21:39.987Z,47.80
2018-06-28T12:24:08.468Z,47.80
2018-06-28T12:26:36.866Z,46.30
2018-06-28T12:31:33.594Z,45.10
2018-06-28T12:34:01.978Z,45.50
2018-06-28T12:36:30.485Z,46.50
2018-06-28T12:38:58.949Z,44.10
2018-06-28T12:41:27.428Z,45.40
2018-06-28T12:43:55.819Z,44.30
2018-06-28T12:48:41.660Z,45.10
2018-06-28T12:51:10.776Z,45.80
2018-06-28T12:53:39.298Z,46.60
2018-06-28T12:56:34.156Z,48.10
2018-06-28T12:59:03.796Z,48.90
2018-06-28T13:01:32.606Z,48.30
2018-06-28T13:04:01.004Z,47.80
2018-06-28T13:06:29.428Z,47.70
2018-06-28T13:08:58.833Z,47.90
2018-06-28T13:11:29.959Z,47.00
2018-06-28T13:13:58.462Z,48.00
2018-06-28T13:16:28.985Z,47.70
2018-06-28T13:18:57.565Z,48.40
2018-06-28T13:21:26.054Z,48.30
2018-06-28T13:23:54.536Z,47.60
2018-06-28T13:26:23.065Z,47.40
2018-06-28T13:28:51.537Z,48.20
2018-06-28T13:31:20.041Z,47.00
2018-06-28T13:33:48.543Z,46.00
2018-06-28T13:36:16.908Z,43.70
2018-06-28T13:38:45.532Z,42.80
2018-06-28T13:41:14.343Z,45.20
2018-06-28T13:43:42.873Z,43.80
2018-06-28T13:46:11.452Z,44.30
2018-06-28T13:48:39.959Z,44.20
2018-06-28T13:51:08.835Z,44.20
2018-06-28T13:53:37.355Z,43.90
2018-06-28T13:56:06.116Z,43.80
2018-06-28T13:58:34.637Z,43.10
2018-06-28T14:01:03.004Z,42.00
2018-06-28T14:03:31.432Z,42.60
2018-06-28T14:05:59.927Z,42.40
2018-06-28T14:08:28.412Z,43.00
2018-06-28T14:13:25.095Z,46.60
2018-06-28T14:16:36.046Z,48.10
2018-06-28T14:19:04.783Z,48.30
2018-06-28T14:21:33.226Z,47.90
2018-06-28T14:24:01.661Z,47.90
2018-06-28T14:26:30.148Z,48.40
2018-06-28T14:28:58.685Z,48.20
2018-06-28T14:31:27.324Z,48.80
2018-06-28T14:33:55.964Z,48.20
2018-06-28T14:36:24.429Z,47.80
2018-06-28T14:38:52.971Z,46.30
2018-06-28T14:41:21.440Z,46.80
2018-06-28T14:43:49.896Z,46.20
2018-06-28T14:46:18.285Z,48.10
2018-06-28T14:48:46.745Z,46.50
2018-06-28T14:51:15.038Z,48.40
2018-06-28T14:53:43.472Z,47.70
2018-06-28T14:56:11.995Z,47.60
2018-06-28T14:58:40.507Z,46.40
2018-06-28T15:01:09.613Z,46.60
2018-06-28T15:03:38.198Z,47.10
2018-06-28T15:06:06.807Z,47.20
2018-06-28T15:08:35.360Z,48.50
2018-06-28T15:11:03.854Z,47.30
2018-06-28T15:13:32.401Z,48.20
2018-06-28T15:16:49.227Z,45.00
2018-06-28T15:19:17.640Z,44.50
2018-06-28T15:21:46.083Z,44.30
2018-06-28T15:24:14.520Z,44.90
2018-06-28T15:26:43.016Z,45.10
2018-06-28T15:29:11.414Z,44.90
2018-06-28T15:31:39.900Z,45.40
2018-06-28T15:34:08.288Z,45.10
2018-06-28T15:36:36.771Z,45.50
2018-06-28T15:39:08.456Z,45.70
2018-06-28T15:41:37.533Z,45.20
2018-06-28T15:44:06.174Z,45.30
2018-06-28T15:46:34.704Z,45.20
2018-06-28T15:49:03.241Z,45.50
2018-06-28T15:51:32.160Z,45.50
2018-06-28T15:54:00.977Z,45.60
2018-06-28T15:56:29.508Z,46.30
2018-06-28T15:58:58.276Z,47.10
2018-06-28T16:01:26.700Z,47.00
2018-06-28T16:03:55.117Z,47.80
2018-06-28T16:06:23.547Z,48.80
2018-06-28T16:08:51.976Z,49.20
2018-06-28T16:11:26.394Z,50.60
2018-06-28T16:13:54.856Z,49.60
2018-06-28T16:17:04.705Z,49.70
2018-06-28T16:22:01.689Z,50.40
2018-06-28T16:24:30.084Z,51.20
2018-06-28T16:26:58.465Z,49.50
2018-06-28T16:29:26.910Z,49.10
2018-06-28T16:31:55.420Z,49.90
2018-06-28T16:34:23.721Z,50.20
2018-06-28T16:36:52.191Z,50.10
2018-06-28T16:39:20.865Z,50.00
2018-06-28T16:41:49.358Z,49.40
2018-06-28T16:44:17.785Z,50.00
2018-06-28T16:46:46.310Z,49.50
2018-06-28T16:49:14.739Z,49.80
2018-06-28T16:51:43.220Z,49.60
2018-06-28T16:54:11.811Z,49.50
2018-06-28T16:56:40.283Z,49.60
2018-06-28T16:59:08.819Z,49.30
2018-06-28T17:01:37.333Z,50.20
2018-06-28T17:04:05.885Z,49.50
2018-06-28T17:06:34.491Z,50.00
2018-06-28T17:09:03.785Z,49.60
2018-06-28T17:11:32.185Z,50.30
2018-06-28T17:14:00.687Z,49.70
2018-06-28T17:17:12.614Z,49.20
2018-06-28T17:19:41.017Z,49.30
2018-06-28T17:22:09.470Z,49.20
2018-06-28T17:24:37.892Z,52.10
2018-06-28T17:27:06.425Z,50.80
2018-06-28T17:29:34.817Z,50.00
2018-06-28T17:32:03.211Z,49.80
2018-06-28T17:34:31.727Z,48.90
2018-06-28T17:37:00.268Z,49.00
2018-06-28T17:39:28.789Z,49.10
2018-06-28T17:41:57.209Z,49.40
2018-06-28T17:44:25.739Z,50.00
2018-06-28T17:46:54.264Z,51.00
2018-06-28T17:49:22.728Z,53.00
2018-06-28T17:51:51.512Z,54.80
2018-06-28T17:54:19.863Z,53.70
2018-06-28T17:56:48.283Z,53.90
2018-06-28T17:59:16.923Z,54.60
2018-06-28T18:01:45.627Z,54.00
2018-06-28T18:04:14.438Z,51.90
2018-06-28T18:06:43.414Z,50.70
2018-06-28T18:09:12.515Z,50.70
2018-06-28T18:11:41.362Z,51.00
2018-06-28T18:14:10.767Z,51.30
2018-06-28T18:17:24.857Z,51.70
2018-06-28T18:19:54.036Z,52.60
2018-06-28T18:22:23.177Z,52.10
2018-06-28T18:24:52.532Z,50.60
2018-06-28T18:27:21.836Z,50.80
2018-06-28T18:29:50.924Z,51.70
2018-06-28T18:32:20.085Z,51.30
2018-06-28T18:34:49.370Z,52.00
2018-06-28T18:37:18.565Z,53.20
2018-06-28T18:39:47.768Z,54.20
2018-06-28T18:42:17.020Z,54.40
2018-06-28T18:44:46.338Z,55.10
2018-06-28T18:47:15.752Z,55.20
2018-06-28T18:49:45.093Z,56.20
2018-06-28T18:52:14.365Z,56.50
2018-06-28T18:54:43.571Z,56.60
2018-06-28T18:57:12.947Z,56.70
2018-06-28T18:59:42.268Z,56.60
2018-06-28T19:02:11.681Z,56.60
2018-06-28T19:04:41.078Z,56.20
2018-06-28T19:07:10.334Z,55.80
2018-06-28T19:09:44.553Z,55.50
2018-06-28T19:12:13.732Z,55.30
2018-06-28T19:15:05.981Z,55.40
2018-06-28T19:17:45.011Z,55.70
2018-06-28T19:20:14.257Z,55.30
2018-06-28T19:22:48.477Z,55.50
2018-06-28T19:25:18.080Z,55.30
2018-06-28T19:27:47.376Z,54.80
2018-06-28T19:30:21.824Z,54.90
2018-06-28T19:32:51.055Z,54.90
2018-06-28T19:35:20.412Z,55.30
2018-06-28T19:37:50.601Z,55.50
2018-06-28T19:40:25.084Z,55.70
2018-06-28T19:43:09.212Z,55.70
2018-06-28T19:45:38.372Z,55.70
2018-06-28T19:48:07.665Z,55.80
2018-06-28T19:50:42.158Z,55.50
2018-06-28T19:53:12.951Z,55.40
2018-06-28T19:55:42.047Z,55.20
2018-06-28T19:58:11.206Z,55.20
2018-06-28T20:00:45.423Z,55.00
2018-06-28T20:03:19.715Z,55.10
2018-06-28T20:05:48.949Z,55.40
2018-06-28T20:08:18.086Z,54.80
2018-06-28T20:10:47.323Z,54.60
2018-06-28T20:13:21.526Z,53.90
2018-06-28T20:19:13.118Z,54.10
2018-06-28T20:21:42.254Z,54.10
2018-06-28T20:24:12.084Z,54.00
2018-06-28T20:32:06.807Z,54.10
2018-06-28T20:34:36.104Z,54.70
2018-06-28T20:37:05.428Z,54.90
2018-06-28T20:39:34.611Z,55.20
2018-06-28T20:42:04.300Z,55.50
2018-06-28T20:44:34.196Z,55.80
2018-06-28T20:47:03.863Z,56.10
2018-06-28T20:49:33.331Z,56.30
2018-06-28T20:52:02.303Z,56.00
2018-06-28T20:54:31.956Z,55.60
2018-06-28T20:57:00.934Z,54.90
2018-06-28T20:59:30.044Z,55.40
2018-06-28T21:01:58.875Z,54.60
2018-06-28T21:04:27.162Z,54.50
2018-06-28T21:06:55.886Z,54.30
2018-06-28T21:09:24.477Z,54.20
2018-06-28T21:14:39.247Z,53.90
2018-06-28T21:17:51.065Z,53.90
2018-06-28T21:20:19.518Z,53.70
2018-06-28T21:22:48.154Z,54.10
2018-06-28T21:25:16.811Z,54.10
2018-06-28T21:27:45.282Z,54.40
2018-06-28T21:30:14.155Z,54.50
2018-06-28T21:32:42.790Z,54.30
2018-06-28T21:35:11.472Z,54.40
2018-06-28T21:37:40.244Z,54.80
2018-06-28T21:40:09.070Z,55.90
2018-06-28T21:42:37.376Z,55.50
2018-06-28T21:45:05.838Z,55.80
2018-06-28T21:47:34.632Z,55.40
2018-06-28T21:50:03.473Z,55.20
2018-06-28T21:52:31.831Z,55.40
2018-06-28T21:55:00.322Z,55.30
2018-06-28T21:57:28.714Z,55.00
2018-06-28T21:59:57.039Z,55.10
2018-06-28T22:02:25.500Z,55.40
2018-06-28T22:04:53.803Z,55.40
2018-06-28T22:07:22.191Z,55.30
2018-06-28T22:09:50.585Z,54.90
2018-06-28T22:12:18.982Z,55.60
2018-06-28T22:14:47.344Z,56.00
2018-06-28T22:17:15.860Z,55.70
2018-06-28T22:19:44.604Z,56.20
2018-06-28T22:22:13.113Z,57.30
2018-06-28T22:24:41.688Z,57.60
2018-06-28T22:27:10.059Z,56.80
2018-06-28T22:29:38.447Z,57.10
2018-06-28T22:32:06.829Z,57.20
2018-06-28T22:34:35.268Z,57.20
2018-06-28T22:37:03.650Z,57.60
2018-06-28T22:42:00.398Z,58.00
2018-06-28T22:44:29.127Z,58.00
2018-06-28T22:46:57.922Z,58.50
2018-06-28T22:49:26.902Z,57.60
2018-06-28T22:54:23.854Z,56.90
2018-06-28T22:56:52.464Z,56.80
2018-06-28T22:59:21.230Z,56.60
2018-06-28T23:01:49.575Z,56.60
2018-06-28T23:04:18.420Z,56.70
2018-06-28T23:06:47.070Z,56.60
2018-06-28T23:09:15.478Z,56.70
2018-06-28T23:11:43.875Z,56.90
2018-06-28T23:14:12.592Z,56.60
2018-06-28T23:16:41.351Z,56.50
2018-06-28T23:19:10.262Z,56.70
2018-06-28T23:21:38.750Z,56.50
2018-06-28T23:24:07.234Z,55.90
2018-06-28T23:26:36.191Z,56.00
2018-06-28T23:29:04.843Z,56.10
2018-06-28T23:31:33.519Z,55.60
2018-06-28T23:34:01.914Z,55.80
2018-06-28T23:36:30.676Z,56.50
2018-06-28T23:38:59.343Z,56.90
2018-06-28T23:41:27.934Z,57.00
2018-06-28T23:43:56.650Z,57.10
2018-06-28T23:46:25.094Z,57.30
2018-06-28T23:48:53.987Z,58.30
2018-06-28T23:51:22.354Z,58.50
2018-06-28T23:53:50.576Z,58.20
2018-06-28T23:56:19.012Z,57.70
